createdAt,value
2023-03-26T00:02:05.692Z,7.67
2023-03-26T00:05:14.992Z,7.63
2023-03-26T00:07:43.083Z,7.55
2023-03-26T00:10:11.611Z,7.52
2023-03-26T00:12:39.880Z,7.51
2023-03-26T00:15:10.521Z,7.50
2023-03-26T00:17:38.854Z,7.47
2023-03-26T00:20:08.491Z,7.45
2023-03-26T00:22:36.769Z,7.41
2023-03-26T00:25:07.465Z,7.36
2023-03-26T00:27:36.133Z,7.33
2023-03-26T00:30:05.935Z,7.28
2023-03-26T00:32:34.129Z,7.24
2023-03-26T00:35:03.892Z,7.18
2023-03-26T00:37:33.947Z,7.13
2023-03-26T00:40:06.933Z,7.11
2023-03-26T00:42:35.778Z,7.05
2023-03-26T00:45:08.290Z,7.03
2023-03-26T00:47:36.782Z,7.02
2023-03-26T00:50:05.639Z,7.02
2023-03-26T00:52:36.306Z,7.03
2023-03-26T00:55:04.781Z,7.03
2023-03-26T00:57:35.918Z,7.01
2023-03-26T01:00:10.366Z,6.99
2023-03-26T01:02:39.359Z,6.95
2023-03-26T01:05:36.124Z,6.92
2023-03-26T01:08:30.788Z,6.90
2023-03-26T01:11:03.219Z,6.84
2023-03-26T01:13:36.084Z,6.81
2023-03-26T01:16:20.436Z,6.78
2023-03-26T01:18:49.297Z,6.78
2023-03-26T01:21:22.929Z,6.75
2023-03-26T01:24:10.906Z,6.73
2023-03-26T01:26:54.505Z,6.73
2023-03-26T01:29:47.100Z,6.73
2023-03-26T01:32:31.052Z,6.73
2023-03-26T01:35:13.238Z,6.72
2023-03-26T01:37:53.665Z,6.73
2023-03-26T01:40:25.657Z,6.70
2023-03-26T01:43:04.135Z,6.67
2023-03-26T01:45:36.386Z,6.62
2023-03-26T01:48:06.609Z,6.59
2023-03-26T01:50:34.911Z,6.57
2023-03-26T01:53:04.468Z,6.57
2023-03-26T01:55:58.102Z,6.58
2023-03-26T01:58:30.181Z,6.58
2023-03-26T02:01:13.574Z,6.56
2023-03-26T02:03:56.734Z,6.53
2023-03-26T02:07:09.383Z,6.50
2023-03-26T02:09:50.899Z,6.46
2023-03-26T02:12:21.824Z,6.43
2023-03-26T02:14:50.632Z,6.39
2023-03-26T02:17:19.267Z,6.35
2023-03-26T02:19:48.114Z,6.31
2023-03-26T02:22:16.415Z,6.29
2023-03-26T02:24:46.087Z,6.27
2023-03-26T02:27:18.487Z,6.27
2023-03-26T02:29:47.938Z,6.26
2023-03-26T02:32:19.355Z,6.24
2023-03-26T02:34:47.510Z,6.22
2023-03-26T02:37:19.207Z,6.19
2023-03-26T02:39:49.199Z,6.17
2023-03-26T02:42:25.319Z,6.14
2023-03-26T02:44:53.907Z,6.11
2023-03-26T02:47:43.431Z,6.06
2023-03-26T02:50:41.815Z,6.02
2023-03-26T02:53:37.681Z,6.01
2023-03-26T02:56:41.661Z,5.99
2023-03-26T02:59:30.454Z,5.96
2023-03-26T03:02:19.515Z,5.96
2023-03-26T03:04:48.329Z,5.95
2023-03-26T03:07:17.977Z,5.98
2023-03-26T03:09:46.834Z,6.02
2023-03-26T03:12:34.049Z,6.06
2023-03-26T03:15:03.292Z,6.11
2023-03-26T03:17:31.499Z,6.12
2023-03-26T03:20:00.350Z,6.12
2023-03-26T03:22:28.618Z,6.12
2023-03-26T03:24:57.901Z,6.11
2023-03-26T03:27:26.464Z,6.06
2023-03-26T03:30:14.596Z,6.00
2023-03-26T03:32:58.536Z,5.95
2023-03-26T03:35:30.259Z,5.90
2023-03-26T03:38:00.785Z,5.86
2023-03-26T03:40:29.828Z,5.83
2023-03-26T03:42:58.236Z,5.80
2023-03-26T03:45:36.687Z,5.77
2023-03-26T03:48:11.754Z,5.72
2023-03-26T03:50:42.623Z,5.68
2023-03-26T03:53:29.604Z,5.67
2023-03-26T03:56:02.133Z,5.68
2023-03-26T03:58:50.755Z,5.68
2023-03-26T04:01:25.050Z,5.67
2023-03-26T04:03:59.060Z,5.66
2023-03-26T04:06:36.755Z,5.66
2023-03-26T04:09:05.207Z,5.64
2023-03-26T04:11:33.837Z,5.63
2023-03-26T04:14:11.890Z,5.60
2023-03-26T04:16:57.648Z,5.57
2023-03-26T04:19:27.544Z,5.53
2023-03-26T04:21:55.875Z,5.49
2023-03-26T04:24:24.596Z,5.44
2023-03-26T04:27:31.611Z,5.38
2023-03-26T04:30:17.248Z,5.34
2023-03-26T04:32:45.787Z,5.31
2023-03-26T04:35:16.805Z,5.33
2023-03-26T04:37:48.248Z,5.49
2023-03-26T04:40:22.216Z,5.71
2023-03-26T04:43:19.323Z,6.00
2023-03-26T04:46:03.048Z,6.29
2023-03-26T04:48:32.768Z,6.62
2023-03-26T04:51:01.722Z,6.94
2023-03-26T04:53:30.029Z,7.15
2023-03-26T04:56:09.221Z,7.37
2023-03-26T04:59:00.689Z,7.71
2023-03-26T05:01:30.910Z,8.06
2023-03-26T05:03:59.713Z,8.42
2023-03-26T05:06:30.479Z,8.76
2023-03-26T05:08:59.372Z,9.13
2023-03-26T05:11:48.347Z,9.47
2023-03-26T05:14:17.049Z,9.79
2023-03-26T05:16:48.653Z,10.16
2023-03-26T05:19:17.014Z,10.53
2023-03-26T05:21:46.203Z,10.89
2023-03-26T05:24:14.837Z,11.27
2023-03-26T05:26:43.267Z,11.62
2023-03-26T05:29:13.177Z,12.00
2023-03-26T05:31:45.682Z,12.39
2023-03-26T05:34:13.940Z,12.71
2023-03-26T05:36:42.709Z,13.00
2023-03-26T05:39:41.496Z,13.35
2023-03-26T05:42:32.609Z,13.59
2023-03-26T05:45:17.513Z,13.85
2023-03-26T05:47:45.842Z,14.11
2023-03-26T05:50:14.667Z,14.24
2023-03-26T05:52:44.688Z,14.42
2023-03-26T05:55:45.900Z,14.39
2023-03-26T05:58:52.391Z,14.69
2023-03-26T06:01:45.054Z,14.87
2023-03-26T06:04:16.241Z,15.11
2023-03-26T06:07:18.130Z,15.35
2023-03-26T06:09:53.494Z,15.52
2023-03-26T06:12:22.126Z,15.71
2023-03-26T06:14:50.779Z,15.97
2023-03-26T06:17:30.931Z,16.40
2023-03-26T06:20:09.271Z,16.74
2023-03-26T06:22:44.057Z,17.04
2023-03-26T06:25:21.213Z,17.36
2023-03-26T06:28:13.314Z,17.46
2023-03-26T06:31:01.650Z,17.51
2023-03-26T06:33:39.075Z,17.80
2023-03-26T06:36:07.886Z,17.93
2023-03-26T06:38:36.608Z,18.25
2023-03-26T06:41:07.874Z,18.69
2023-03-26T06:43:52.994Z,18.92
2023-03-26T06:46:39.994Z,19.22
2023-03-26T06:49:26.948Z,19.55
2023-03-26T06:52:15.477Z,19.72
2023-03-26T06:55:01.986Z,20.05
2023-03-26T06:57:50.806Z,20.46
2023-03-26T07:00:54.755Z,20.93
2023-03-26T07:03:47.026Z,21.12
2023-03-26T07:06:34.203Z,21.48
2023-03-26T07:09:02.623Z,21.90
2023-03-26T07:11:39.820Z,22.05
2023-03-26T07:14:34.319Z,22.14
2023-03-26T07:17:12.231Z,22.63
2023-03-26T07:20:08.252Z,23.01
2023-03-26T07:22:37.548Z,23.33
2023-03-26T07:25:15.736Z,23.46
2023-03-26T07:28:30.778Z,23.58
2023-03-26T07:31:34.978Z,23.39
2023-03-26T07:35:02.432Z,23.76
2023-03-26T07:38:35.375Z,23.69
2023-03-26T07:41:35.156Z,24.12
2023-03-26T07:44:41.067Z,24.49
2023-03-26T07:47:36.842Z,24.70
2023-03-26T07:50:25.569Z,24.80
2023-03-26T07:52:59.845Z,25.21
2023-03-26T07:55:34.178Z,25.35
2023-03-26T07:58:26.790Z,24.86
2023-03-26T08:01:24.221Z,25.09
2023-03-26T08:04:23.443Z,24.76
2023-03-26T08:08:02.994Z,25.00
2023-03-26T08:10:54.010Z,25.22
2023-03-26T08:14:08.044Z,25.41
2023-03-26T08:16:58.958Z,25.78
2023-03-26T08:19:45.603Z,26.28
2023-03-26T08:22:26.683Z,26.51
2023-03-26T08:25:19.633Z,26.77
2023-03-26T08:28:07.588Z,26.88
2023-03-26T08:30:35.920Z,26.77
2023-03-26T08:33:16.876Z,26.85
2023-03-26T08:35:46.782Z,26.81
2023-03-26T08:38:19.594Z,26.65
2023-03-26T08:41:12.600Z,26.49
2023-03-26T08:43:58.961Z,26.51
2023-03-26T08:46:57.414Z,26.65
2023-03-26T08:50:02.433Z,26.76
2023-03-26T08:52:36.378Z,26.72
2023-03-26T08:55:23.280Z,26.77
2023-03-26T08:58:39.255Z,27.12
2023-03-26T09:01:38.232Z,27.02
2023-03-26T09:04:21.729Z,27.53
2023-03-26T09:07:14.322Z,27.23
2023-03-26T09:10:06.647Z,27.44
2023-03-26T09:13:08.116Z,27.73
2023-03-26T09:16:07.770Z,27.81
2023-03-26T09:19:01.055Z,28.26
2023-03-26T09:21:53.428Z,28.54
2023-03-26T09:25:00.245Z,28.60
2023-03-26T09:27:56.292Z,29.06
2023-03-26T09:30:47.111Z,29.30
2023-03-26T09:33:42.853Z,29.71
2023-03-26T09:36:20.255Z,29.75
2023-03-26T09:39:17.904Z,29.93
2023-03-26T09:41:51.865Z,30.09
2023-03-26T09:44:33.653Z,30.18
2023-03-26T09:47:27.801Z,30.48
2023-03-26T09:50:21.774Z,30.44
2023-03-26T09:53:11.111Z,30.59
2023-03-26T09:55:40.476Z,30.73
2023-03-26T09:58:27.559Z,30.89
2023-03-26T10:01:09.040Z,30.98
2023-03-26T10:03:46.256Z,31.00
2023-03-26T10:06:26.296Z,30.71
2023-03-26T10:08:54.458Z,30.25
2023-03-26T10:11:35.729Z,30.50
2023-03-26T10:14:16.253Z,30.93
2023-03-26T10:17:06.389Z,31.17
2023-03-26T10:19:44.074Z,31.63
2023-03-26T10:22:54.113Z,31.59
2023-03-26T10:25:48.013Z,31.35
2023-03-26T10:28:40.835Z,31.38
2023-03-26T10:31:42.829Z,31.30
2023-03-26T10:34:30.121Z,31.36
2023-03-26T10:37:01.091Z,31.74
2023-03-26T10:39:47.258Z,31.64
2023-03-26T10:42:33.855Z,31.62
2023-03-26T10:45:26.696Z,31.36
2023-03-26T10:48:03.787Z,31.43
2023-03-26T10:50:51.046Z,31.52
2023-03-26T10:53:31.247Z,31.65
2023-03-26T10:56:28.536Z,31.58
2023-03-26T10:58:57.349Z,30.49
2023-03-26T11:01:49.969Z,29.54
2023-03-26T11:04:29.549Z,29.28
2023-03-26T11:07:18.013Z,29.58
2023-03-26T11:10:05.695Z,29.76
2023-03-26T11:13:00.363Z,29.56
2023-03-26T11:15:39.445Z,29.75
2023-03-26T11:18:29.116Z,29.84
2023-03-26T11:21:19.596Z,29.50
2023-03-26T11:24:20.411Z,28.31
2023-03-26T11:26:49.299Z,26.96
2023-03-26T11:29:39.047Z,25.85
2023-03-26T11:32:45.978Z,24.75
2023-03-26T11:35:39.670Z,23.72
2023-03-26T11:38:24.782Z,22.73
2023-03-26T11:40:56.277Z,21.92
2023-03-26T11:44:02.876Z,21.11
2023-03-26T11:46:35.744Z,20.58
2023-03-26T11:49:09.320Z,20.17
2023-03-26T11:51:39.666Z,19.87
2023-03-26T11:54:10.973Z,19.61
2023-03-26T11:57:04.558Z,19.46
2023-03-26T11:59:55.431Z,19.15
2023-03-26T12:02:34.453Z,18.68
2023-03-26T12:05:26.540Z,18.42
2023-03-26T12:08:01.025Z,18.17
2023-03-26T12:10:29.603Z,17.91
2023-03-26T12:13:06.570Z,17.66
2023-03-26T12:15:43.969Z,17.68
2023-03-26T12:18:25.926Z,17.62
2023-03-26T12:21:14.232Z,17.51
2023-03-26T12:23:43.941Z,17.43
2023-03-26T12:26:42.583Z,17.30
2023-03-26T12:29:14.044Z,17.21
2023-03-26T12:31:54.682Z,17.11
2023-03-26T12:34:35.835Z,16.95
2023-03-26T12:37:07.010Z,16.87
2023-03-26T12:40:10.632Z,16.75
2023-03-26T12:44:49.337Z,16.63
2023-03-26T12:45:23.027Z,16.56
2023-03-26T12:48:01.599Z,16.51
2023-03-26T12:50:58.390Z,16.35
2023-03-26T12:53:38.625Z,16.30
2023-03-26T12:56:27.402Z,16.45
2023-03-26T12:59:16.391Z,16.51
2023-03-26T13:01:47.669Z,16.45
2023-03-26T13:04:18.585Z,16.33
2023-03-26T13:07:00.227Z,16.34
2023-03-26T13:09:40.994Z,16.37
2023-03-26T13:12:15.987Z,16.31
2023-03-26T13:15:02.934Z,16.11
2023-03-26T13:17:58.344Z,15.97
2023-03-26T13:20:45.432Z,15.83
2023-03-26T13:23:32.338Z,15.79
2023-03-26T13:26:08.727Z,15.70
2023-03-26T13:28:49.727Z,15.61
2023-03-26T13:31:30.455Z,15.40
2023-03-26T13:34:11.142Z,15.34
2023-03-26T13:36:52.015Z,15.32
2023-03-26T13:39:30.199Z,15.30
2023-03-26T13:42:14.938Z,15.23
2023-03-26T13:44:48.796Z,15.09
2023-03-26T13:47:22.548Z,15.01
2023-03-26T13:49:58.718Z,14.95
2023-03-26T13:52:53.153Z,14.90
2023-03-26T13:55:50.860Z,14.82
2023-03-26T13:58:57.422Z,14.79
2023-03-26T14:01:41.394Z,14.79
2023-03-26T14:04:32.300Z,14.75
2023-03-26T14:07:13.398Z,14.68
2023-03-26T14:09:53.168Z,14.66
2023-03-26T14:12:44.717Z,14.62
2023-03-26T14:15:51.313Z,14.46
2023-03-26T14:18:30.816Z,14.32
2023-03-26T14:21:09.794Z,14.11
2023-03-26T14:24:12.910Z,13.91
2023-03-26T14:27:03.405Z,13.69
2023-03-26T14:29:57.406Z,13.60
2023-03-26T14:32:38.051Z,13.44
2023-03-26T14:35:44.645Z,13.28
2023-03-26T14:38:47.048Z,13.02
2023-03-26T14:41:25.640Z,12.95
2023-03-26T14:44:21.795Z,12.87
2023-03-26T14:46:54.010Z,12.84
2023-03-26T14:49:34.219Z,12.79
2023-03-26T14:52:11.389Z,12.74
2023-03-26T14:54:45.683Z,12.67
2023-03-26T14:57:43.829Z,12.57
2023-03-26T15:00:20.959Z,12.41
2023-03-26T15:03:20.690Z,12.30
2023-03-26T15:06:15.495Z,12.21
2023-03-26T15:09:21.539Z,12.13
2023-03-26T15:12:15.799Z,12.04
2023-03-26T15:15:01.305Z,11.99
2023-03-26T15:17:38.743Z,11.95
2023-03-26T15:20:43.586Z,11.89
2023-03-26T15:23:42.886Z,11.78
2023-03-26T15:26:59.338Z,11.63
2023-03-26T15:29:49.548Z,11.58
2023-03-26T15:32:58.263Z,11.54
2023-03-26T15:35:43.627Z,11.51
2023-03-26T15:38:51.798Z,11.54
2023-03-26T15:41:39.736Z,11.57
2023-03-26T15:44:31.704Z,11.61
2023-03-26T15:47:47.567Z,11.63
2023-03-26T15:50:38.132Z,11.63
2023-03-26T15:53:14.749Z,11.59
2023-03-26T15:56:06.763Z,11.54
2023-03-26T15:58:46.696Z,11.53
2023-03-26T16:01:36.392Z,11.48
2023-03-26T16:04:14.730Z,11.44
2023-03-26T16:06:48.874Z,11.40
2023-03-26T16:09:43.442Z,11.39
2023-03-26T16:12:12.045Z,11.33
2023-03-26T16:14:44.797Z,11.27
2023-03-26T16:17:17.922Z,11.21
2023-03-26T16:19:46.087Z,11.16
2023-03-26T16:22:32.629Z,11.09
2023-03-26T16:25:27.913Z,11.00
2023-03-26T16:28:13.017Z,10.92
2023-03-26T16:30:42.429Z,10.86
2023-03-26T16:33:16.642Z,10.81
2023-03-26T16:36:04.712Z,10.72
2023-03-26T16:39:10.915Z,10.51
2023-03-26T16:41:39.171Z,10.43
2023-03-26T16:44:41.335Z,10.40
2023-03-26T16:47:43.220Z,10.30
2023-03-26T16:50:33.206Z,10.11
2023-03-26T16:53:29.929Z,9.92
2023-03-26T16:56:16.898Z,9.85
2023-03-26T16:58:48.153Z,9.84
2023-03-26T17:01:27.430Z,9.88
2023-03-26T17:03:59.861Z,9.84
2023-03-26T17:06:37.077Z,9.83
2023-03-26T17:09:28.901Z,9.85
2023-03-26T17:12:25.486Z,9.84
2023-03-26T17:15:12.011Z,9.80
2023-03-26T17:18:05.206Z,9.75
2023-03-26T17:20:56.124Z,9.72
2023-03-26T17:23:39.648Z,9.69
2023-03-26T17:26:48.575Z,9.63
2023-03-26T17:29:29.602Z,9.60
2023-03-26T17:32:11.594Z,9.55
2023-03-26T17:34:46.818Z,9.47
2023-03-26T17:37:23.912Z,9.46
2023-03-26T17:39:57.789Z,9.50
2023-03-26T17:42:33.952Z,9.52
2023-03-26T17:45:11.195Z,9.48
2023-03-26T17:47:59.119Z,9.40
2023-03-26T17:50:32.671Z,9.29
2023-03-26T17:53:05.075Z,9.19
2023-03-26T17:55:38.013Z,9.11
2023-03-26T17:58:37.780Z,9.09
2023-03-26T18:01:32.376Z,8.98
2023-03-26T18:04:04.306Z,8.88
2023-03-26T18:06:44.864Z,8.74
2023-03-26T18:09:31.633Z,8.66
2023-03-26T18:12:27.628Z,8.54
2023-03-26T18:15:32.617Z,8.45
2023-03-26T18:18:18.153Z,8.38
2023-03-26T18:20:49.342Z,8.26
2023-03-26T18:23:48.081Z,8.19
2023-03-26T18:26:32.133Z,8.19
2023-03-26T18:29:12.316Z,8.13
2023-03-26T18:31:45.873Z,8.10
2023-03-26T18:34:18.994Z,8.10
2023-03-26T18:37:01.202Z,8.03
2023-03-26T18:39:29.586Z,7.96
2023-03-26T18:41:58.434Z,7.94
2023-03-26T18:44:27.763Z,7.93
2023-03-26T18:46:56.421Z,7.91
2023-03-26T18:49:27.545Z,7.95
2023-03-26T18:51:57.511Z,7.93
2023-03-26T18:54:34.397Z,7.89
2023-03-26T18:57:15.741Z,7.88
2023-03-26T18:59:45.638Z,7.77
2023-03-26T19:02:16.370Z,7.71
2023-03-26T19:04:47.088Z,7.67
2023-03-26T19:07:25.312Z,7.65
2023-03-26T19:09:56.595Z,7.63
2023-03-26T19:12:34.089Z,7.66
2023-03-26T19:15:11.811Z,7.62
2023-03-26T19:17:53.557Z,7.59
2023-03-26T19:20:26.593Z,7.57
2023-03-26T19:22:57.041Z,7.56
2023-03-26T19:25:33.836Z,7.46
2023-03-26T19:28:03.153Z,7.41
2023-03-26T19:30:40.106Z,7.37
2023-03-26T19:33:18.883Z,7.35
2023-03-26T19:35:54.782Z,7.36
2023-03-26T19:38:28.064Z,7.32
2023-03-26T19:40:58.086Z,7.30
2023-03-26T19:43:27.163Z,7.31
2023-03-26T19:46:01.246Z,7.32
2023-03-26T19:48:45.332Z,7.36
2023-03-26T19:51:30.940Z,7.40
2023-03-26T19:54:03.280Z,7.47
2023-03-26T19:56:31.984Z,7.46
2023-03-26T19:59:00.420Z,7.46
2023-03-26T20:01:30.758Z,7.48
2023-03-26T20:04:05.253Z,7.44
2023-03-26T20:06:42.566Z,7.41
2023-03-26T20:09:13.750Z,7.42
2023-03-26T20:11:42.327Z,7.39
2023-03-26T20:14:16.732Z,7.36
2023-03-26T20:16:46.238Z,7.34
2023-03-26T20:19:15.501Z,7.33
2023-03-26T20:21:44.959Z,7.32
2023-03-26T20:24:16.295Z,7.36
2023-03-26T20:26:46.084Z,7.35
2023-03-26T20:29:15.486Z,7.33
2023-03-26T20:31:44.413Z,7.32
2023-03-26T20:34:20.059Z,7.33
2023-03-26T20:36:54.452Z,7.35
2023-03-26T20:39:26.394Z,7.34
2023-03-26T20:41:56.448Z,7.34
2023-03-26T20:44:26.944Z,7.33
2023-03-26T20:46:57.408Z,7.31
2023-03-26T20:49:29.304Z,7.27
2023-03-26T20:51:57.868Z,7.25
2023-03-26T20:54:27.249Z,7.24
2023-03-26T20:56:55.754Z,7.22
2023-03-26T20:59:27.576Z,7.18
2023-03-26T21:01:58.073Z,7.15
2023-03-26T21:04:27.493Z,7.09
2023-03-26T21:07:07.153Z,7.05
2023-03-26T21:09:44.971Z,6.98
2023-03-26T21:12:34.305Z,6.96
2023-03-26T21:15:09.985Z,6.89
2023-03-26T21:17:42.246Z,6.86
2023-03-26T21:20:13.395Z,6.85
2023-03-26T21:23:10.120Z,6.85
2023-03-26T21:25:46.177Z,6.84
2023-03-26T21:28:29.169Z,6.88
2023-03-26T21:31:20.125Z,6.89
2023-03-26T21:33:49.722Z,6.88
2023-03-26T21:36:20.050Z,6.86
2023-03-26T21:38:50.671Z,6.88
2023-03-26T21:41:36.481Z,6.91
2023-03-26T21:44:04.768Z,6.89
2023-03-26T21:46:33.506Z,6.86
2023-03-26T21:49:02.268Z,6.82
2023-03-26T21:51:32.075Z,6.80
2023-03-26T21:54:01.202Z,6.81
2023-03-26T21:56:37.513Z,6.82
2023-03-26T21:59:19.314Z,6.83
2023-03-26T22:02:13.858Z,6.82
2023-03-26T22:04:52.065Z,6.77
2023-03-26T22:07:50.143Z,6.76
2023-03-26T22:10:18.953Z,6.74
2023-03-26T22:12:47.007Z,6.72
2023-03-26T22:15:15.709Z,6.69
2023-03-26T22:17:44.279Z,6.69
2023-03-26T22:20:14.984Z,6.74
2023-03-26T22:22:49.227Z,6.75
2023-03-26T22:25:19.065Z,6.73
2023-03-26T22:27:49.239Z,6.73
2023-03-26T22:30:18.113Z,6.72
2023-03-26T22:32:47.107Z,6.72
2023-03-26T22:35:15.672Z,6.73
2023-03-26T22:37:43.985Z,6.72
2023-03-26T22:40:15.277Z,6.70
2023-03-26T22:42:43.569Z,6.65
2023-03-26T22:45:12.561Z,6.50
2023-03-26T22:47:40.931Z,6.27
2023-03-26T22:50:09.944Z,6.10
2023-03-26T22:52:40.790Z,6.03
2023-03-26T22:55:11.824Z,6.02
2023-03-26T22:57:41.417Z,6.11
2023-03-26T23:00:19.570Z,6.21
2023-03-26T23:02:47.649Z,6.27
2023-03-26T23:05:19.066Z,6.36
2023-03-26T23:07:48.961Z,6.45
2023-03-26T23:10:17.239Z,6.53
2023-03-26T23:12:45.736Z,6.54
2023-03-26T23:15:14.247Z,6.52
2023-03-26T23:17:42.612Z,6.46
2023-03-26T23:20:14.968Z,6.37
2023-03-26T23:22:43.559Z,6.27
2023-03-26T23:25:12.304Z,6.23
2023-03-26T23:27:41.601Z,6.22
2023-03-26T23:30:11.014Z,6.24
2023-03-26T23:32:39.337Z,6.29
2023-03-26T23:35:08.013Z,6.35
2023-03-26T23:37:36.213Z,6.39
2023-03-26T23:40:10.352Z,6.45
2023-03-26T23:42:38.844Z,6.50
2023-03-26T23:45:08.729Z,6.57
2023-03-26T23:47:37.500Z,6.64
2023-03-26T23:50:06.552Z,6.70
2023-03-26T23:52:34.874Z,6.77
2023-03-26T23:55:03.693Z,6.84
2023-03-26T23:57:31.947Z,6.89
